Time;durP1;ratioP1;P1;durP2;ratioP2;P2;SDS_P1;SDS_P2;PMS_P1;PMS_P2;Temp;Humidity;BMP_temperature;BMP_pressure;BME280_temperature;BME280_humidity;BME280_pressure;Samples;Min_cycle;Max_cycle;Signal;HPM_P1;HPM_P2
2023/01/20 00:01:02;;;;;;;;;;;2.50;99.90;;;;;;5007735;28;19922;-77
2023/01/20 00:03:27;;;;;;;;;;;2.40;99.90;;;;;;5010700;28;19917;-75
2023/01/20 00:05:53;;;;;;;;;;;2.40;99.90;;;;;;5005917;28;19910;-75
2023/01/20 00:08:19;;;;;;;;;;;2.30;99.90;;;;;;5003885;28;19960;-75
2023/01/20 00:10:44;;;;;;;;;;;2.20;99.90;;;;;;5006816;28;19944;-78
2023/01/20 00:13:10;;;;;;;;;;;2.20;99.90;;;;;;5010079;28;19913;-75
2023/01/20 00:15:35;;;;;;;;;;;2.30;99.90;;;;;;5000632;28;19968;-78
2023/01/20 00:18:01;;;;;;;;;;;2.30;99.90;;;;;;5016491;28;19913;-79
2023/01/20 00:20:26;;;;;;;;;;;2.30;99.90;;;;;;5002740;28;19917;-75
2023/01/20 00:22:52;;;;;;;;;;;2.20;99.90;;;;;;5012048;28;19913;-78
2023/01/20 00:25:17;;;;;;;;;;;2.30;99.90;;;;;;5013650;28;19967;-77
2023/01/20 00:27:43;;;;;;;;;;;2.20;99.90;;;;;;5009598;28;20589;-75
2023/01/20 00:30:09;;;;;;;;;;;2.20;99.90;;;;;;5010915;28;19953;-75
2023/01/20 00:32:35;;;;;;;;;;;2.20;99.90;;;;;;5024830;28;19917;-75
2023/01/20 00:35:01;;;;;;;;;;;2.30;99.90;;;;;;4998007;28;19916;-74
2023/01/20 00:37:26;;;;;;;;;;;2.30;99.90;;;;;;5017016;28;19914;-76
2023/01/20 00:39:52;;;;;;;;;;;2.50;99.90;;;;;;5006411;28;19972;-74
2023/01/20 00:42:17;;;;;;;;;;;2.50;99.90;;;;;;5006773;28;19916;-77
2023/01/20 00:44:43;;;;;;;;;;;2.60;99.90;;;;;;5015504;28;19948;-76
2023/01/20 00:47:08;;;;;;;;;;;2.60;99.90;;;;;;5005692;28;19936;-78
2023/01/20 00:49:34;;;;;;;;;;;2.80;99.90;;;;;;5015667;28;19916;-77
2023/01/20 00:51:59;;;;;;;;;;;2.70;99.90;;;;;;5012336;28;20521;-76
2023/01/20 00:54:25;;;;;;;;;;;2.70;99.90;;;;;;5016578;28;20004;-77
2023/01/20 00:56:50;;;;;;;;;;;2.80;99.90;;;;;;5002044;28;19910;-78
2023/01/20 00:59:16;;;;;;;;;;;2.70;99.90;;;;;;5012941;28;20313;-75
2023/01/20 01:01:41;;;;;;;;;;;2.60;99.90;;;;;;5013920;28;20355;-77
2023/01/20 01:04:07;;;;;;;;;;;2.70;99.90;;;;;;5005587;28;19910;-77
2023/01/20 01:06:32;;;;;;;;;;;2.60;99.90;;;;;;5004977;28;20661;-75
2023/01/20 01:08:57;;;;;;;;;;;2.60;99.90;;;;;;5015529;28;19998;-77
2023/01/20 01:11:23;;;;;;;;;;;2.60;99.90;;;;;;5006534;28;20455;-76
2023/01/20 01:13:48;;;;;;;;;;;2.60;99.90;;;;;;5017201;28;19921;-75
2023/01/20 01:16:14;;;;;;;;;;;2.50;99.90;;;;;;5008423;28;20008;-74
2023/01/20 01:18:40;;;;;;;;;;;2.40;99.90;;;;;;5018207;28;20278;-75
2023/01/20 01:21:10;;;;;;;;;;;2.40;99.90;;;;;;5025794;28;19909;-74
2023/01/20 01:23:35;;;;;;;;;;;2.40;99.90;;;;;;5015742;28;19910;-75
2023/01/20 01:26:01;;;;;;;;;;;2.40;99.90;;;;;;5009153;28;19987;-75
2023/01/20 01:28:26;;;;;;;;;;;2.40;99.90;;;;;;5005318;28;19909;-77
2023/01/20 01:30:52;;;;;;;;;;;2.30;99.90;;;;;;5008191;28;19909;-74
2023/01/20 01:33:17;;;;;;;;;;;2.30;99.90;;;;;;5003045;28;20435;-74
2023/01/20 01:35:52;;;;;;;;;;;2.30;99.90;;;;;;5010963;28;19917;-77
2023/01/20 01:38:18;;;;;;;;;;;2.20;99.90;;;;;;5009884;28;20433;-75
2023/01/20 01:40:47;;;;;;;;;;;2.30;99.90;;;;;;5006378;28;19920;-76
2023/01/20 01:43:20;;;;;;;;;;;2.20;99.90;;;;;;4999054;28;19920;-75
2023/01/20 01:45:46;;;;;;;;;;;2.30;99.90;;;;;;5008886;28;19916;-77
2023/01/20 01:48:11;;;;;;;;;;;2.40;99.90;;;;;;5020804;28;19913;-75
2023/01/20 01:50:47;;;;;;;;;;;2.20;99.90;;;;;;5002925;28;19945;-74
2023/01/20 01:53:13;;;;;;;;;;;2.30;99.90;;;;;;5004972;28;19981;-74
2023/01/20 01:55:42;;;;;;;;;;;2.30;99.90;;;;;;5007335;28;20400;-75
2023/01/20 01:58:10;;;;;;;;;;;2.20;99.90;;;;;;5018226;28;19924;-77
2023/01/20 02:00:37;;;;;;;;;;;2.30;99.90;;;;;;5017055;28;20374;-75
2023/01/20 02:03:03;;;;;;;;;;;2.30;99.90;;;;;;5001129;28;19967;-74
2023/01/20 02:05:29;;;;;;;;;;;2.20;99.90;;;;;;5017065;28;20317;-77
2023/01/20 02:07:56;;;;;;;;;;;2.20;99.90;;;;;;5004331;28;20444;-77
2023/01/20 02:10:22;;;;;;;;;;;2.00;99.90;;;;;;5014075;28;19983;-74
2023/01/20 02:12:50;;;;;;;;;;;2.00;99.90;;;;;;5007157;28;19918;-77
2023/01/20 02:15:16;;;;;;;;;;;2.00;99.90;;;;;;5009316;28;19964;-74
2023/01/20 02:17:41;;;;;;;;;;;1.90;99.90;;;;;;5025738;28;19908;-77
2023/01/20 02:20:25;;;;;;;;;;;1.90;99.90;;;;;;5023232;28;19924;-76
2023/01/20 02:23:01;;;;;;;;;;;2.00;99.90;;;;;;5008523;28;19920;-75
2023/01/20 02:25:45;;;;;;;;;;;2.00;99.90;;;;;;5013840;28;19910;-76
2023/01/20 02:28:11;;;;;;;;;;;2.00;99.90;;;;;;5009650;28;20004;-77
2023/01/20 02:30:55;;;;;;;;;;;2.10;99.90;;;;;;5023724;28;20386;-75
2023/01/20 02:33:27;;;;;;;;;;;2.10;99.90;;;;;;5019671;28;19913;-76
2023/01/20 02:35:58;;;;;;;;;;;2.10;99.90;;;;;;5011273;28;20008;-78
2023/01/20 02:38:43;;;;;;;;;;;2.20;99.90;;;;;;5006935;28;19913;-74
2023/01/20 02:41:16;;;;;;;;;;;2.20;99.90;;;;;;5010912;28;19910;-74
2023/01/20 02:43:52;;;;;;;;;;;2.20;99.90;;;;;;5007696;28;19921;-74
2023/01/20 02:46:31;;;;;;;;;;;2.10;99.90;;;;;;5008837;28;20007;-74
2023/01/20 02:49:04;;;;;;;;;;;2.00;99.90;;;;;;5003970;28;19918;-74
2023/01/20 02:51:32;;;;;;;;;;;2.10;99.90;;;;;;5000747;28;19913;-74
2023/01/20 02:54:03;;;;;;;;;;;2.00;99.90;;;;;;5006308;28;19945;-76
2023/01/20 02:56:30;;;;;;;;;;;2.00;99.90;;;;;;4996731;28;19910;-77
2023/01/20 02:59:01;;;;;;;;;;;2.00;99.90;;;;;;5011889;28;19960;-77
2023/01/20 03:01:31;;;;;;;;;;;2.10;99.90;;;;;;5000855;28;19964;-75
2023/01/20 03:03:58;;;;;;;;;;;2.10;99.90;;;;;;5018951;28;19937;-73
2023/01/20 03:06:25;;;;;;;;;;;2.20;99.90;;;;;;5004165;28;19924;-77
2023/01/20 03:08:52;;;;;;;;;;;2.20;99.90;;;;;;5010902;28;19913;-76
2023/01/20 03:11:18;;;;;;;;;;;2.30;99.90;;;;;;5013217;28;20360;-75
2023/01/20 03:13:47;;;;;;;;;;;2.10;99.90;;;;;;5011826;28;19910;-77
2023/01/20 03:16:14;;;;;;;;;;;2.20;99.90;;;;;;5013478;28;19910;-76
2023/01/20 03:18:40;;;;;;;;;;;2.40;99.90;;;;;;5007804;28;19971;-77
2023/01/20 03:21:07;;;;;;;;;;;2.30;99.90;;;;;;5002707;28;19976;-76
2023/01/20 03:23:34;;;;;;;;;;;2.20;99.90;;;;;;5008965;28;19956;-75
2023/01/20 03:26:01;;;;;;;;;;;2.30;99.90;;;;;;5008683;28;19917;-75
2023/01/20 03:28:26;;;;;;;;;;;2.30;99.90;;;;;;5012142;28;20014;-75
2023/01/20 03:30:54;;;;;;;;;;;2.20;99.90;;;;;;5021438;28;19939;-76
2023/01/20 03:33:20;;;;;;;;;;;2.10;99.90;;;;;;5014999;28;19913;-77
2023/01/20 03:35:45;;;;;;;;;;;2.30;99.90;;;;;;5016020;28;19967;-73
2023/01/20 03:38:11;;;;;;;;;;;2.30;99.90;;;;;;5002025;28;19913;-75
2023/01/20 03:40:42;;;;;;;;;;;2.30;99.90;;;;;;5004224;28;19917;-75
2023/01/20 03:43:14;;;;;;;;;;;2.30;99.90;;;;;;5005671;28;20378;-75
2023/01/20 03:45:41;;;;;;;;;;;2.20;99.90;;;;;;5012453;28;19913;-73
2023/01/20 03:48:15;;;;;;;;;;;2.20;99.90;;;;;;5020455;28;19913;-73
2023/01/20 03:50:58;;;;;;;;;;;2.20;99.90;;;;;;5004516;28;20481;-77
2023/01/20 03:53:30;;;;;;;;;;;2.20;99.90;;;;;;5009773;28;19909;-75
2023/01/20 03:56:16;;;;;;;;;;;2.10;99.90;;;;;;5004968;28;19909;-75
2023/01/20 03:58:43;;;;;;;;;;;2.10;99.90;;;;;;4998651;28;20397;-73
2023/01/20 04:01:10;;;;;;;;;;;2.00;99.90;;;;;;5007426;28;20289;-75
2023/01/20 04:03:37;;;;;;;;;;;2.10;99.90;;;;;;5007091;28;19910;-76
2023/01/20 04:06:04;;;;;;;;;;;2.10;99.90;;;;;;5017874;28;19914;-75
2023/01/20 04:08:32;;;;;;;;;;;2.10;99.90;;;;;;5007825;28;19913;-71
2023/01/20 04:10:58;;;;;;;;;;;2.10;99.90;;;;;;5005827;28;19910;-75
2023/01/20 04:13:24;;;;;;;;;;;2.00;99.90;;;;;;5004707;28;19914;-73
2023/01/20 04:15:49;;;;;;;;;;;2.00;99.90;;;;;;5004309;28;19920;-74
2023/01/20 04:18:21;;;;;;;;;;;2.00;99.90;;;;;;5013232;28;20387;-74
2023/01/20 04:20:49;;;;;;;;;;;2.10;99.90;;;;;;5004317;28;19910;-72
2023/01/20 04:23:22;;;;;;;;;;;2.00;99.90;;;;;;5003255;28;20636;-74
2023/01/20 04:25:48;;;;;;;;;;;2.10;99.90;;;;;;4999896;28;19910;-71
2023/01/20 04:28:13;;;;;;;;;;;2.00;99.90;;;;;;5004759;28;19913;-74
2023/01/20 04:30:39;;;;;;;;;;;2.00;99.90;;;;;;5022490;28;20114;-72
2023/01/20 04:33:04;;;;;;;;;;;2.10;99.90;;;;;;5015368;28;19910;-72
2023/01/20 04:35:30;;;;;;;;;;;1.90;99.90;;;;;;5019162;28;20617;-73
2023/01/20 04:37:55;;;;;;;;;;;2.00;99.90;;;;;;5006828;28;19917;-73
2023/01/20 04:40:21;;;;;;;;;;;2.00;99.90;;;;;;5009391;28;20440;-73
2023/01/20 04:42:46;;;;;;;;;;;2.00;99.90;;;;;;5011842;28;19909;-72
2023/01/20 04:45:15;;;;;;;;;;;2.00;99.90;;;;;;5004184;28;19917;-73
2023/01/20 04:47:41;;;;;;;;;;;2.10;99.90;;;;;;5008608;28;20541;-73
2023/01/20 04:50:07;;;;;;;;;;;2.20;99.90;;;;;;5008254;28;20076;-73
2023/01/20 04:52:33;;;;;;;;;;;2.10;99.90;;;;;;5009434;28;19910;-74
2023/01/20 04:54:58;;;;;;;;;;;2.10;99.90;;;;;;5011192;28;20000;-73
2023/01/20 04:57:23;;;;;;;;;;;2.10;99.90;;;;;;5007937;28;19922;-74
2023/01/20 04:59:49;;;;;;;;;;;2.10;99.90;;;;;;5003420;28;19914;-71
2023/01/20 05:02:15;;;;;;;;;;;2.10;99.90;;;;;;5012701;28;19921;-72
2023/01/20 05:04:40;;;;;;;;;;;2.20;99.90;;;;;;5004323;28;19918;-72
2023/01/20 05:07:06;;;;;;;;;;;2.20;99.90;;;;;;5003567;28;19917;-72
2023/01/20 05:09:31;;;;;;;;;;;2.30;99.90;;;;;;5011141;28;19909;-73
2023/01/20 05:11:56;;;;;;;;;;;2.20;99.90;;;;;;5015650;28;19989;-73
2023/01/20 05:14:22;;;;;;;;;;;2.20;99.90;;;;;;5005473;28;19913;-73
2023/01/20 05:16:47;;;;;;;;;;;2.20;99.90;;;;;;5013563;28;20422;-74
2023/01/20 05:19:13;;;;;;;;;;;2.30;99.90;;;;;;5009194;28;19921;-73
2023/01/20 05:21:39;;;;;;;;;;;2.30;99.90;;;;;;5009980;28;19984;-73
2023/01/20 05:24:04;;;;;;;;;;;2.40;99.90;;;;;;5010672;28;19937;-74
2023/01/20 05:26:31;;;;;;;;;;;2.30;99.90;;;;;;5015875;28;19972;-75
2023/01/20 05:28:57;;;;;;;;;;;2.30;99.90;;;;;;5011128;28;19952;-73
2023/01/20 05:31:22;;;;;;;;;;;2.30;99.90;;;;;;5018794;28;19932;-75
2023/01/20 05:33:48;;;;;;;;;;;2.40;99.90;;;;;;5009607;28;20926;-75
2023/01/20 05:36:13;;;;;;;;;;;2.40;99.90;;;;;;5013066;28;19913;-74
2023/01/20 05:38:39;;;;;;;;;;;2.30;99.90;;;;;;5008438;28;19925;-73
2023/01/20 05:41:05;;;;;;;;;;;2.20;99.90;;;;;;5019157;28;19909;-73
2023/01/20 05:43:31;;;;;;;;;;;2.30;99.90;;;;;;5013954;28;19919;-74
2023/01/20 05:45:56;;;;;;;;;;;2.30;99.90;;;;;;5010387;28;19909;-73
2023/01/20 05:48:22;;;;;;;;;;;2.30;99.90;;;;;;5021359;28;19917;-73
2023/01/20 05:50:48;;;;;;;;;;;2.30;99.90;;;;;;5026027;28;20350;-72
2023/01/20 05:53:14;;;;;;;;;;;2.30;99.90;;;;;;5011185;28;19917;-72
2023/01/20 05:55:39;;;;;;;;;;;2.30;99.90;;;;;;5027212;28;20133;-71
2023/01/20 05:58:05;;;;;;;;;;;2.10;99.90;;;;;;5015996;28;20124;-70
2023/01/20 06:00:30;;;;;;;;;;;2.00;99.90;;;;;;5018825;28;20503;-71
2023/01/20 06:02:56;;;;;;;;;;;2.00;99.90;;;;;;5010365;28;19909;-71
2023/01/20 06:05:22;;;;;;;;;;;2.10;99.90;;;;;;5003775;28;19917;-72
2023/01/20 06:07:48;;;;;;;;;;;2.10;99.90;;;;;;5021740;28;19956;-72
2023/01/20 06:10:14;;;;;;;;;;;2.20;99.90;;;;;;4999431;28;19922;-71
2023/01/20 06:12:40;;;;;;;;;;;2.10;99.90;;;;;;5006451;28;19925;-70
2023/01/20 06:15:05;;;;;;;;;;;2.30;99.90;;;;;;5006383;28;19909;-73
2023/01/20 06:17:31;;;;;;;;;;;2.20;99.90;;;;;;5010199;28;20000;-73
2023/01/20 06:19:57;;;;;;;;;;;2.10;99.90;;;;;;5004620;28;20043;-71
2023/01/20 06:22:23;;;;;;;;;;;2.20;99.90;;;;;;5001314;28;19967;-71
2023/01/20 06:24:48;;;;;;;;;;;2.20;99.90;;;;;;4995020;28;20004;-72
2023/01/20 06:27:14;;;;;;;;;;;2.30;99.90;;;;;;5005058;28;20594;-72
2023/01/20 06:29:39;;;;;;;;;;;2.40;99.90;;;;;;5013704;28;19968;-72
2023/01/20 06:32:05;;;;;;;;;;;2.30;99.90;;;;;;5018907;28;20004;-72
2023/01/20 06:34:30;;;;;;;;;;;2.30;99.90;;;;;;5006665;28;19952;-73
2023/01/20 06:36:56;;;;;;;;;;;2.40;99.90;;;;;;5015327;28;19940;-76
2023/01/20 06:39:21;;;;;;;;;;;2.30;99.90;;;;;;5007205;28;19921;-72
2023/01/20 06:41:47;;;;;;;;;;;2.40;99.90;;;;;;5015990;28;19910;-73
2023/01/20 06:44:13;;;;;;;;;;;2.50;99.90;;;;;;5019043;28;20454;-76
2023/01/20 06:46:38;;;;;;;;;;;2.40;99.90;;;;;;5007078;28;20358;-74
2023/01/20 06:49:04;;;;;;;;;;;2.40;99.90;;;;;;5008286;28;19909;-79
2023/01/20 06:51:30;;;;;;;;;;;2.40;99.90;;;;;;5006601;28;20005;-74
2023/01/20 06:53:56;;;;;;;;;;;2.40;99.90;;;;;;5006933;28;20578;-74
2023/01/20 06:56:21;;;;;;;;;;;2.40;99.90;;;;;;5001944;28;19916;-76
2023/01/20 06:58:47;;;;;;;;;;;2.40;99.90;;;;;;5005644;28;19929;-73
2023/01/20 07:01:14;;;;;;;;;;;2.40;99.90;;;;;;5006208;28;19986;-73
2023/01/20 07:03:43;;;;;;;;;;;2.40;99.90;;;;;;5006939;28;19921;-76
2023/01/20 07:06:13;;;;;;;;;;;2.40;99.90;;;;;;5011568;28;19913;-76
2023/01/20 07:08:39;;;;;;;;;;;2.40;99.90;;;;;;5015962;28;19957;-75
2023/01/20 07:11:04;;;;;;;;;;;2.40;99.90;;;;;;5019387;28;19915;-76
2023/01/20 07:13:30;;;;;;;;;;;2.30;99.90;;;;;;5013837;28;19986;-78
2023/01/20 07:15:56;;;;;;;;;;;2.50;99.90;;;;;;5016613;28;19913;-74
2023/01/20 07:18:21;;;;;;;;;;;2.40;99.90;;;;;;5006474;28;19914;-73
2023/01/20 07:20:51;;;;;;;;;;;2.40;99.90;;;;;;5007020;28;20343;-76
2023/01/20 07:23:16;;;;;;;;;;;2.30;99.90;;;;;;5006602;28;20007;-75
2023/01/20 07:25:42;;;;;;;;;;;2.20;99.90;;;;;;5015914;28;19959;-75
2023/01/20 07:28:08;;;;;;;;;;;2.30;99.90;;;;;;5009069;28;19955;-75
2023/01/20 07:30:33;;;;;;;;;;;2.30;99.90;;;;;;5008054;28;20494;-76
2023/01/20 07:32:59;;;;;;;;;;;2.40;99.90;;;;;;5007483;28;19922;-77
2023/01/20 07:35:25;;;;;;;;;;;2.30;99.90;;;;;;5007016;28;19913;-79
2023/01/20 07:37:50;;;;;;;;;;;2.40;99.90;;;;;;5009053;28;19913;-74
2023/01/20 07:40:16;;;;;;;;;;;2.50;99.90;;;;;;5009802;28;19921;-74
2023/01/20 07:42:42;;;;;;;;;;;2.50;99.90;;;;;;5017605;28;19921;-78
2023/01/20 07:45:07;;;;;;;;;;;2.40;99.90;;;;;;5016852;28;20668;-78
2023/01/20 07:47:33;;;;;;;;;;;2.50;99.90;;;;;;5015713;28;20008;-75
2023/01/20 07:49:58;;;;;;;;;;;2.50;99.90;;;;;;5008273;28;19909;-77
2023/01/20 07:52:24;;;;;;;;;;;2.50;99.90;;;;;;5011399;28;19914;-75
2023/01/20 07:54:49;;;;;;;;;;;2.30;99.90;;;;;;5009721;28;19971;-76
2023/01/20 07:57:15;;;;;;;;;;;2.40;99.90;;;;;;5016636;28;19914;-77
2023/01/20 07:59:40;;;;;;;;;;;2.30;99.90;;;;;;5011283;28;19988;-73
2023/01/20 08:02:07;;;;;;;;;;;2.50;99.90;;;;;;5025392;28;20358;-74
2023/01/20 08:04:33;;;;;;;;;;;2.50;99.90;;;;;;5014235;28;20406;-76
2023/01/20 08:07:05;;;;;;;;;;;2.40;99.90;;;;;;5039897;28;19926;-75
2023/01/20 08:09:30;;;;;;;;;;;2.50;99.90;;;;;;5012847;28;19914;-73
2023/01/20 08:11:56;;;;;;;;;;;2.60;99.90;;;;;;5011355;28;19910;-74
2023/01/20 08:14:22;;;;;;;;;;;2.50;99.90;;;;;;5011779;28;19916;-76
2023/01/20 08:16:47;;;;;;;;;;;2.60;99.90;;;;;;5009779;28;19921;-74
2023/01/20 08:19:13;;;;;;;;;;;2.70;99.90;;;;;;5014177;28;20513;-77
2023/01/20 08:21:38;;;;;;;;;;;2.70;99.90;;;;;;5006523;28;19917;-77
2023/01/20 08:24:05;;;;;;;;;;;2.60;99.90;;;;;;5003143;28;20008;-74
2023/01/20 08:26:31;;;;;;;;;;;2.70;99.90;;;;;;5011605;28;19957;-75
2023/01/20 08:29:07;;;;;;;;;;;2.60;99.90;;;;;;5013763;28;19939;-76
2023/01/20 08:31:33;;;;;;;;;;;2.80;99.90;;;;;;5014731;28;19910;-74
2023/01/20 08:33:58;;;;;;;;;;;2.70;99.90;;;;;;5039255;28;19952;-76
2023/01/20 08:36:26;;;;;;;;;;;2.80;99.90;;;;;;5029003;28;19926;-75
2023/01/20 08:38:51;;;;;;;;;;;3.00;99.90;;;;;;5013304;28;20001;-77
2023/01/20 08:41:18;;;;;;;;;;;3.00;99.90;;;;;;5018637;28;19952;-75
2023/01/20 08:43:44;;;;;;;;;;;3.00;99.90;;;;;;5011148;28;19933;-75
2023/01/20 08:46:10;;;;;;;;;;;2.90;99.90;;;;;;5014634;28;19971;-75
2023/01/20 08:48:37;;;;;;;;;;;2.90;99.90;;;;;;5016149;28;19913;-76
2023/01/20 08:51:04;;;;;;;;;;;3.10;99.90;;;;;;5008253;28;19910;-76
2023/01/20 08:53:29;;;;;;;;;;;3.10;99.90;;;;;;5010644;28;20008;-76
2023/01/20 08:55:55;;;;;;;;;;;3.30;99.90;;;;;;5007201;28;19983;-77
2023/01/20 08:58:21;;;;;;;;;;;3.30;99.90;;;;;;5008446;28;19913;-76
2023/01/20 09:00:46;;;;;;;;;;;3.10;99.90;;;;;;5007587;28;19910;-75
2023/01/20 09:03:12;;;;;;;;;;;3.10;99.90;;;;;;5015009;28;19913;-79
2023/01/20 09:05:37;;;;;;;;;;;3.20;99.90;;;;;;5006313;28;20386;-77
2023/01/20 09:08:03;;;;;;;;;;;3.10;99.90;;;;;;5013334;28;19913;-77
2023/01/20 09:10:31;;;;;;;;;;;3.10;99.90;;;;;;5008879;28;19971;-81
2023/01/20 09:12:56;;;;;;;;;;;3.10;99.90;;;;;;5006645;28;20287;-75
2023/01/20 09:15:22;;;;;;;;;;;3.30;99.90;;;;;;5006850;28;19910;-76
2023/01/20 09:17:47;;;;;;;;;;;3.20;99.90;;;;;;5008905;28;19916;-76
2023/01/20 09:20:13;;;;;;;;;;;3.20;99.90;;;;;;5009887;28;19921;-76
2023/01/20 09:22:39;;;;;;;;;;;3.20;99.90;;;;;;5010016;28;19972;-77
2023/01/20 09:25:06;;;;;;;;;;;3.30;99.90;;;;;;5025609;28;20293;-78
2023/01/20 09:27:31;;;;;;;;;;;3.20;99.90;;;;;;5022380;28;19968;-80
2023/01/20 09:29:57;;;;;;;;;;;3.30;99.90;;;;;;5017015;28;19914;-76
2023/01/20 09:32:23;;;;;;;;;;;3.20;99.90;;;;;;5008470;28;19909;-76
2023/01/20 09:34:48;;;;;;;;;;;3.30;99.90;;;;;;5018887;28;19924;-78
2023/01/20 09:45:51;;;;;;;;;;;3.30;99.90;;;;;;5012475;28;20314;-77
2023/01/20 09:54:00;;;;;;;;;;;3.20;99.90;;;;;;5007830;28;19921;-79
2023/01/20 09:56:26;;;;;;;;;;;3.20;99.90;;;;;;5003088;28;19929;-78
2023/01/20 09:59:13;;;;;;;;;;;3.30;99.90;;;;;;5010461;28;19918;-75
2023/01/20 10:01:42;;;;;;;;;;;3.30;99.90;;;;;;5018022;28;19935;-76
2023/01/20 10:04:14;;;;;;;;;;;3.30;99.90;;;;;;5015608;28;19965;-78
2023/01/20 10:06:45;;;;;;;;;;;3.30;99.90;;;;;;5022328;28;20667;-75
2023/01/20 10:09:20;;;;;;;;;;;3.40;99.90;;;;;;5017734;28;19913;-76
2023/01/20 10:11:46;;;;;;;;;;;3.30;99.90;;;;;;5014597;28;19914;-76
2023/01/20 10:14:15;;;;;;;;;;;3.50;99.90;;;;;;5020947;28;19913;-77
2023/01/20 10:16:46;;;;;;;;;;;3.60;99.90;;;;;;5015911;28;19909;-77
2023/01/20 10:19:35;;;;;;;;;;;3.50;99.90;;;;;;5030900;28;19921;-75
2023/01/20 10:22:00;;;;;;;;;;;3.80;99.90;;;;;;4997147;28;19977;-76
2023/01/20 10:24:42;;;;;;;;;;;3.90;99.90;;;;;;5021300;28;19910;-78
2023/01/20 10:27:07;;;;;;;;;;;4.00;99.90;;;;;;5014224;28;20307;-78
2023/01/20 10:29:38;;;;;;;;;;;4.00;99.90;;;;;;5015753;28;19932;-77
2023/01/20 10:32:13;;;;;;;;;;;4.20;99.90;;;;;;5021496;28;20354;-76
2023/01/20 10:34:45;;;;;;;;;;;4.40;99.90;;;;;;5013219;28;19988;-75
2023/01/20 10:37:11;;;;;;;;;;;4.10;99.90;;;;;;5012351;28;19927;-77
2023/01/20 10:39:40;;;;;;;;;;;4.20;99.90;;;;;;5012248;28;19914;-74
2023/01/20 10:42:12;;;;;;;;;;;4.20;99.90;;;;;;5015556;28;20355;-76
2023/01/20 10:44:38;;;;;;;;;;;4.00;99.90;;;;;;5019614;28;19980;-77
2023/01/20 10:47:22;;;;;;;;;;;4.20;99.90;;;;;;5021061;28;20501;-76
2023/01/20 10:50:07;;;;;;;;;;;4.20;99.90;;;;;;5012511;28;19909;-76
2023/01/20 10:52:51;;;;;;;;;;;4.20;99.90;;;;;;5014192;28;19996;-74
2023/01/20 10:55:36;;;;;;;;;;;4.40;99.90;;;;;;5014140;28;19996;-75
2023/01/20 10:58:07;;;;;;;;;;;4.30;99.90;;;;;;5012396;28;19913;-77
2023/01/20 11:00:34;;;;;;;;;;;4.70;99.90;;;;;;5010719;28;19913;-77
2023/01/20 11:03:01;;;;;;;;;;;4.80;99.90;;;;;;5029541;28;20089;-77
2023/01/20 11:05:28;;;;;;;;;;;4.90;99.90;;;;;;5015789;28;19960;-76
2023/01/20 11:07:55;;;;;;;;;;;4.80;99.90;;;;;;5015963;28;19940;-75
2023/01/20 11:10:25;;;;;;;;;;;4.80;99.90;;;;;;5017452;28;19916;-76
2023/01/20 11:12:52;;;;;;;;;;;4.60;99.90;;;;;;5021001;28;19914;-78
2023/01/20 11:15:19;;;;;;;;;;;4.60;99.90;;;;;;5014626;28;19917;-78
2023/01/20 11:17:45;;;;;;;;;;;4.80;99.90;;;;;;5010937;28;20367;-79
2023/01/20 11:20:18;;;;;;;;;;;4.80;99.90;;;;;;5018965;28;19914;-76
2023/01/20 11:22:45;;;;;;;;;;;4.70;99.90;;;;;;5019508;28;20534;-74
2023/01/20 11:25:21;;;;;;;;;;;4.80;99.90;;;;;;5012618;28;19909;-79
2023/01/20 11:27:46;;;;;;;;;;;4.70;99.90;;;;;;5010221;28;19909;-75
2023/01/20 11:30:21;;;;;;;;;;;4.80;99.90;;;;;;5016105;28;20000;-76
2023/01/20 11:33:05;;;;;;;;;;;4.70;99.90;;;;;;5017294;28;20539;-76
2023/01/20 11:35:31;;;;;;;;;;;5.10;99.90;;;;;;5015197;28;19920;-75
2023/01/20 11:37:56;;;;;;;;;;;4.80;99.90;;;;;;5014813;28;20004;-75
2023/01/20 11:40:23;;;;;;;;;;;4.90;99.90;;;;;;5015115;28;19914;-76
2023/01/20 11:42:50;;;;;;;;;;;4.70;99.90;;;;;;5015075;28;19925;-76
2023/01/20 11:45:24;;;;;;;;;;;4.80;99.90;;;;;;5028133;28;20000;-77
2023/01/20 11:48:12;;;;;;;;;;;4.70;99.90;;;;;;5017355;28;19924;-77
2023/01/20 11:50:55;;;;;;;;;;;4.80;99.90;;;;;;5006158;28;19920;-78
2023/01/20 11:53:22;;;;;;;;;;;4.80;99.90;;;;;;5016717;28;20031;-75
2023/01/20 11:55:49;;;;;;;;;;;4.90;99.90;;;;;;5002146;28;19961;-75
2023/01/20 11:58:16;;;;;;;;;;;4.90;99.90;;;;;;5014559;28;19908;-75
2023/01/20 12:00:43;;;;;;;;;;;5.00;99.90;;;;;;5013201;28;19971;-75
2023/01/20 12:03:08;;;;;;;;;;;5.00;99.90;;;;;;5013889;28;20326;-78
2023/01/20 12:05:51;;;;;;;;;;;5.00;99.90;;;;;;5012615;28;20004;-75
2023/01/20 12:08:22;;;;;;;;;;;4.90;99.90;;;;;;5017160;28;19924;-74
2023/01/20 12:10:48;;;;;;;;;;;4.70;99.90;;;;;;5024816;28;19932;-76
2023/01/20 12:13:22;;;;;;;;;;;4.40;99.90;;;;;;5011451;28;19988;-76
2023/01/20 12:15:53;;;;;;;;;;;4.60;99.90;;;;;;5011170;28;20324;-76
2023/01/20 12:18:18;;;;;;;;;;;4.70;99.90;;;;;;5009668;28;19909;-74
2023/01/20 12:20:46;;;;;;;;;;;4.80;99.90;;;;;;5017476;28;20637;-76
2023/01/20 12:23:31;;;;;;;;;;;5.00;99.90;;;;;;5005817;28;19913;-77
2023/01/20 12:25:59;;;;;;;;;;;5.20;99.90;;;;;;5011715;28;19915;-76
2023/01/20 12:28:33;;;;;;;;;;;5.10;99.90;;;;;;5011266;28;19919;-75
2023/01/20 12:31:02;;;;;;;;;;;5.10;99.90;;;;;;5016008;28;19919;-76
2023/01/20 12:33:32;;;;;;;;;;;5.20;99.90;;;;;;5007459;28;20462;-75
2023/01/20 12:36:09;;;;;;;;;;;5.30;99.90;;;;;;5009854;28;20023;-77
2023/01/20 12:38:44;;;;;;;;;;;5.20;99.90;;;;;;5006729;28;19909;-80
2023/01/20 12:41:14;;;;;;;;;;;5.20;99.90;;;;;;5018034;28;19996;-77
2023/01/20 12:43:51;;;;;;;;;;;5.20;99.90;;;;;;5009447;28;19909;-76
2023/01/20 12:46:16;;;;;;;;;;;5.40;99.90;;;;;;5018504;28;19913;-75
2023/01/20 12:49:01;;;;;;;;;;;5.20;99.90;;;;;;5014775;28;19996;-75
2023/01/20 12:51:47;;;;;;;;;;;5.20;99.90;;;;;;5022984;28;19909;-78
2023/01/20 12:54:31;;;;;;;;;;;4.90;99.90;;;;;;5016356;28;19988;-76
2023/01/20 12:56:56;;;;;;;;;;;4.80;99.90;;;;;;5019738;28;19945;-76
2023/01/20 12:59:57;;;;;;;;;;;4.70;99.90;;;;;;5023684;28;19917;-76
2023/01/20 13:02:36;;;;;;;;;;;4.40;99.90;;;;;;4954357;28;19930;-75
2023/01/20 13:05:20;;;;;;;;;;;4.10;99.90;;;;;;5001490;28;20008;-76
2023/01/20 13:07:55;;;;;;;;;;;3.80;99.90;;;;;;5010023;28;20315;-76
2023/01/20 13:10:31;;;;;;;;;;;3.80;99.90;;;;;;5009147;28;19910;-75
2023/01/20 13:12:57;;;;;;;;;;;3.90;99.90;;;;;;5011106;28;19909;-76
2023/01/20 13:15:26;;;;;;;;;;;4.00;99.90;;;;;;5012034;28;19919;-75
2023/01/20 13:18:01;;;;;;;;;;;3.90;99.90;;;;;;5024461;28;19989;-74
2023/01/20 13:20:27;;;;;;;;;;;4.10;99.90;;;;;;5010157;28;20383;-76
2023/01/20 13:22:54;;;;;;;;;;;4.10;99.90;;;;;;5023284;28;19913;-75
2023/01/20 13:25:23;;;;;;;;;;;4.20;99.90;;;;;;5011197;28;19910;-77
2023/01/20 13:27:50;;;;;;;;;;;4.10;99.90;;;;;;5015302;28;19976;-75
2023/01/20 13:30:35;;;;;;;;;;;4.00;99.90;;;;;;5027536;28;20323;-75
2023/01/20 13:33:05;;;;;;;;;;;3.90;99.90;;;;;;5021795;28;19910;-76
2023/01/20 13:35:32;;;;;;;;;;;4.00;99.90;;;;;;5011828;28;19910;-76
2023/01/20 13:37:59;;;;;;;;;;;4.00;99.90;;;;;;5008218;28;20428;-75
2023/01/20 13:40:37;;;;;;;;;;;4.00;99.90;;;;;;5014080;28;19922;-75
2023/01/20 13:43:03;;;;;;;;;;;3.90;99.90;;;;;;5006169;28;19914;-75
2023/01/20 13:45:29;;;;;;;;;;;4.00;99.90;;;;;;5011965;28;19913;-78
2023/01/20 13:48:09;;;;;;;;;;;3.80;99.90;;;;;;5020417;28;19915;-77
2023/01/20 13:50:39;;;;;;;;;;;4.00;99.90;;;;;;5017004;28;19921;-75
2023/01/20 13:53:13;;;;;;;;;;;3.80;99.90;;;;;;5016771;28;20402;-77
2023/01/20 13:55:39;;;;;;;;;;;3.70;99.90;;;;;;5009170;28;21456;-76
2023/01/20 13:58:11;;;;;;;;;;;3.60;99.90;;;;;;5015965;28;19994;-76
2023/01/20 14:00:37;;;;;;;;;;;3.50;99.90;;;;;;5010382;28;19924;-74
2023/01/20 14:03:16;;;;;;;;;;;3.40;99.90;;;;;;5011574;28;19910;-73
2023/01/20 14:05:41;;;;;;;;;;;3.40;99.90;;;;;;5011652;28;19992;-71
2023/01/20 14:08:14;;;;;;;;;;;3.30;99.90;;;;;;5015231;28;19972;-72
2023/01/20 14:10:39;;;;;;;;;;;3.40;99.90;;;;;;5008562;28;19984;-74
2023/01/20 14:13:16;;;;;;;;;;;3.50;99.90;;;;;;5008358;28;20000;-74
2023/01/20 14:15:42;;;;;;;;;;;3.50;99.90;;;;;;5007772;28;19956;-74
2023/01/20 14:18:12;;;;;;;;;;;3.70;99.90;;;;;;5012233;28;20622;-74
2023/01/20 14:20:39;;;;;;;;;;;3.80;99.90;;;;;;5024135;28;20394;-76
2023/01/20 14:23:25;;;;;;;;;;;3.80;99.90;;;;;;5012896;28;19981;-77
2023/01/20 14:26:04;;;;;;;;;;;3.90;99.90;;;;;;5005123;28;19909;-74
2023/01/20 14:28:30;;;;;;;;;;;3.70;99.90;;;;;;5013075;28;19915;-76
2023/01/20 14:31:16;;;;;;;;;;;3.80;99.90;;;;;;5017947;28;20000;-75
2023/01/20 14:33:42;;;;;;;;;;;3.70;99.90;;;;;;5014938;28;19910;-75
2023/01/20 14:36:10;;;;;;;;;;;3.80;99.90;;;;;;5010631;28;19913;-73
2023/01/20 14:38:37;;;;;;;;;;;3.80;99.90;;;;;;5017551;28;20393;-74
2023/01/20 14:41:03;;;;;;;;;;;3.60;99.90;;;;;;5017819;28;19964;-74
2023/01/20 14:43:31;;;;;;;;;;;3.70;99.90;;;;;;5005237;28;19913;-76
2023/01/20 14:45:56;;;;;;;;;;;3.80;99.90;;;;;;5017532;28;19916;-74
2023/01/20 14:48:23;;;;;;;;;;;3.90;99.90;;;;;;5023891;28;19913;-76
2023/01/20 14:50:51;;;;;;;;;;;4.00;99.90;;;;;;5011869;28;19924;-74
2023/01/20 14:53:16;;;;;;;;;;;4.00;99.90;;;;;;5018392;28;20427;-76